Time;durP1;ratioP1;P1;durP2;ratioP2;P2;SDS_P1;SDS_P2;PMS_P1;PMS_P2;Temp;Humidity;BMP_temperature;BMP_pressure;BME280_temperature;BME280_humidity;BME280_pressure;Samples;Min_cycle;Max_cycle;Signal;HPM_P1;HPM_P2
2022/12/12 00:01:26;;;;;;;25.43;14.70;;;2.40;99.90;;;;;;5045676;28;20314;-32
2022/12/12 00:03:53;;;;;;;24.37;14.50;;;2.40;99.90;;;;;;5046694;28;20231;-32
2022/12/12 00:06:21;;;;;;;24.90;15.37;;;2.40;99.90;;;;;;5045813;28;20311;-32
2022/12/12 00:08:49;;;;;;;25.17;14.73;;;2.40;99.90;;;;;;5046611;28;20200;-32
2022/12/12 00:11:16;;;;;;;23.67;13.93;;;2.30;99.90;;;;;;5047581;28;20920;-32
2022/12/12 00:13:43;;;;;;;22.40;13.53;;;2.30;99.90;;;;;;5046692;28;20216;-32
2022/12/12 00:16:11;;;;;;;25.10;15.23;;;2.30;99.90;;;;;;5046729;28;20204;-33
2022/12/12 00:18:41;;;;;;;23.97;14.97;;;2.30;99.90;;;;;;5046864;28;20204;-32
2022/12/12 00:21:20;;;;;;;27.07;15.23;;;2.30;99.90;;;;;;5046678;28;20220;-32
2022/12/12 00:23:48;;;;;;;25.40;14.73;;;2.30;99.90;;;;;;5046152;28;20228;-32
2022/12/12 00:26:21;;;;;;;20.77;13.87;;;2.30;99.90;;;;;;5045866;28;20203;-33
2022/12/12 00:28:48;;;;;;;24.13;15.73;;;2.20;99.90;;;;;;5045270;28;20572;-33
2022/12/12 00:31:18;;;;;;;26.07;15.10;;;2.20;99.90;;;;;;5047177;28;20732;-33
2022/12/12 00:33:47;;;;;;;23.77;15.37;;;2.20;99.90;;;;;;5047129;28;20223;-32
2022/12/12 00:36:23;;;;;;;25.53;15.20;;;2.20;99.90;;;;;;5047129;28;20231;-32
2022/12/12 00:38:51;;;;;;;30.10;16.40;;;2.20;99.90;;;;;;5046099;28;20274;-32
2022/12/12 00:41:22;;;;;;;23.10;14.83;;;2.20;99.90;;;;;;5047397;28;20291;-32
2022/12/12 00:43:49;;;;;;;25.33;15.63;;;2.10;99.90;;;;;;5046648;28;20226;-33
2022/12/12 00:46:21;;;;;;;25.67;16.00;;;2.10;99.90;;;;;;5046624;28;20196;-32
2022/12/12 00:48:52;;;;;;;27.60;15.87;;;2.10;99.90;;;;;;5046822;28;20721;-31
2022/12/12 00:51:24;;;;;;;27.87;16.90;;;2.10;99.90;;;;;;5046850;28;20616;-31
2022/12/12 00:53:54;;;;;;;24.97;15.43;;;2.10;99.90;;;;;;5046148;28;20204;-31
2022/12/12 00:56:25;;;;;;;24.83;16.00;;;2.10;99.90;;;;;;5045148;28;20215;-32
2022/12/12 00:58:53;;;;;;;22.80;15.50;;;2.00;99.90;;;;;;5046480;28;20644;-32
2022/12/12 01:01:25;;;;;;;25.63;14.40;;;2.00;99.90;;;;;;5046142;28;20200;-31
2022/12/12 01:03:53;;;;;;;26.90;16.10;;;2.00;99.90;;;;;;5046114;28;20695;-31
2022/12/12 01:06:21;;;;;;;27.07;15.97;;;2.00;99.90;;;;;;5046345;28;20208;-33
2022/12/12 01:08:49;;;;;;;25.97;15.97;;;2.00;99.90;;;;;;5045224;28;20307;-33
2022/12/12 01:11:16;;;;;;;25.33;15.73;;;2.00;99.90;;;;;;5046537;28;20203;-34
2022/12/12 01:13:50;;;;;;;24.97;16.07;;;1.90;99.90;;;;;;5044987;28;20216;-31
2022/12/12 01:16:18;;;;;;;27.53;17.37;;;1.90;99.90;;;;;;5061050;28;20298;-32
2022/12/12 01:18:45;;;;;;;30.77;16.87;;;1.90;99.90;;;;;;5046024;28;20702;-32
2022/12/12 01:21:15;;;;;;;25.13;16.27;;;1.90;99.90;;;;;;5046285;28;20200;-31
2022/12/12 01:23:44;;;;;;;25.27;15.57;;;1.90;99.90;;;;;;5045079;28;20666;-31
2022/12/12 01:26:15;;;;;;;24.43;15.87;;;1.90;99.90;;;;;;5060868;28;20773;-31
2022/12/12 01:28:44;;;;;;;26.60;15.40;;;1.90;99.90;;;;;;5045854;28;20486;-31
2022/12/12 01:31:16;;;;;;;26.07;15.77;;;1.80;99.90;;;;;;5045905;28;20243;-31
2022/12/12 01:33:44;;;;;;;25.77;16.20;;;1.80;99.90;;;;;;5045528;28;20204;-31
2022/12/12 01:36:22;;;;;;;28.10;16.40;;;1.80;99.90;;;;;;5045513;28;20210;-31
2022/12/12 01:38:55;;;;;;;25.90;16.27;;;1.80;99.90;;;;;;5046120;28;20277;-31
2022/12/12 01:41:25;;;;;;;24.90;15.67;;;1.80;99.90;;;;;;5046080;28;20746;-31
2022/12/12 01:43:53;;;;;;;26.80;15.87;;;1.70;99.90;;;;;;5045912;28;20213;-31
2022/12/12 01:46:43;;;;;;;26.50;16.33;;;1.70;99.90;;;;;;5045669;28;20220;-30
2022/12/12 01:49:26;;;;;;;24.87;16.43;;;1.70;99.90;;;;;;5044419;28;20205;-31
2022/12/12 01:52:04;;;;;;;27.07;16.03;;;1.70;99.90;;;;;;5045891;28;20203;-31
2022/12/12 01:54:39;;;;;;;24.00;15.03;;;1.60;99.90;;;;;;5050262;28;20716;-31
2022/12/12 01:57:13;;;;;;;27.40;16.53;;;1.60;99.90;;;;;;5065938;28;20644;-31
2022/12/12 01:59:41;;;;;;;26.23;15.97;;;1.60;99.90;;;;;;5047297;28;20970;-31
2022/12/12 02:02:11;;;;;;;27.00;16.43;;;1.60;99.90;;;;;;5045414;28;20235;-31
2022/12/12 02:04:46;;;;;;;26.33;16.37;;;1.60;99.90;;;;;;5045095;28;20301;-31
2022/12/12 02:07:14;;;;;;;34.10;16.87;;;1.50;99.90;;;;;;5045568;28;20301;-31
2022/12/12 02:09:44;;;;;;;26.87;15.60;;;1.50;99.90;;;;;;5045281;28;20202;-31
2022/12/12 02:12:13;;;;;;;27.53;16.57;;;1.50;99.90;;;;;;5044777;28;20638;-31
2022/12/12 02:14:44;;;;;;;26.47;15.40;;;1.50;99.90;;;;;;5047714;28;20303;-31
2022/12/12 02:17:43;;;;;;;24.37;14.83;;;1.50;99.90;;;;;;5045732;28;20618;-31
2022/12/12 02:20:30;;;;;;;25.30;15.90;;;1.50;99.90;;;;;;5046449;28;20266;-31
2022/12/12 02:23:17;;;;;;;25.57;15.50;;;1.40;99.90;;;;;;5046208;28;20310;-31
2022/12/12 02:25:53;;;;;;;25.67;15.70;;;1.40;99.90;;;;;;5047743;28;20220;-31
2022/12/12 02:29:01;;;;;;;25.83;15.70;;;1.40;99.90;;;;;;5051681;28;20187;-31
2022/12/12 02:31:53;;;;;;;26.87;16.37;;;1.40;99.90;;;;;;5065118;28;20281;-31
2022/12/12 02:34:33;;;;;;;24.30;15.47;;;1.40;99.90;;;;;;5065464;28;20682;-31
2022/12/12 02:37:18;;;;;;;22.67;15.13;;;1.30;99.90;;;;;;5063550;28;20207;-31
2022/12/12 02:40:17;;;;;;;26.97;16.20;;;1.30;99.90;;;;;;5064303;28;20629;-31
2022/12/12 02:42:55;;;;;;;24.47;15.63;;;1.30;99.90;;;;;;5065108;28;20311;-31
2022/12/12 02:45:48;;;;;;;26.70;16.37;;;1.20;99.90;;;;;;5064806;28;20259;-31
2022/12/12 02:48:56;;;;;;;25.83;16.40;;;1.20;99.90;;;;;;5066111;28;20191;-31
2022/12/12 02:51:28;;;;;;;24.23;15.43;;;1.20;99.90;;;;;;5045986;28;20640;-31
2022/12/12 02:54:01;;;;;;;29.20;16.57;;;1.20;99.90;;;;;;5060877;28;20608;-31
2022/12/12 02:56:48;;;;;;;24.80;14.97;;;1.20;99.90;;;;;;5068955;28;20601;-31
2022/12/12 02:59:26;;;;;;;25.70;15.60;;;1.20;99.90;;;;;;5067240;28;20223;-31
2022/12/12 03:02:18;;;;;;;23.23;15.60;;;1.10;99.90;;;;;;5069101;28;20211;-31
2022/12/12 03:08:25;;;;;;;25.53;15.67;;;1.10;99.90;;;;;;5066206;28;20188;-31
2022/12/12 03:11:07;;;;;;;25.87;15.87;;;1.10;99.90;;;;;;5049312;28;20311;-31
2022/12/12 03:13:46;;;;;;;25.00;15.47;;;1.00;99.90;;;;;;5048020;28;20751;-31
2022/12/12 03:16:17;;;;;;;24.20;15.03;;;1.00;99.90;;;;;;5048093;28;20522;-31
2022/12/12 03:19:15;;;;;;;24.20;15.17;;;1.00;99.90;;;;;;5048809;28;20274;-31
2022/12/12 03:21:53;;;;;;;22.67;14.73;;;1.00;99.90;;;;;;5048367;28;20204;-31
2022/12/12 03:24:46;;;;;;;23.83;14.83;;;1.00;99.90;;;;;;5047002;28;20605;-31
2022/12/12 03:27:28;;;;;;;22.03;14.17;;;1.00;99.90;;;;;;5048542;28;20235;-32
2022/12/12 03:30:13;;;;;;;22.00;14.83;;;0.90;99.90;;;;;;5047954;28;20214;-32
2022/12/12 03:33:05;;;;;;;24.50;15.67;;;0.90;99.90;;;;;;5048498;28;20287;-32
2022/12/12 03:35:37;;;;;;;24.80;15.10;;;0.90;99.90;;;;;;5046902;28;20204;-31
2022/12/12 03:38:18;;;;;;;26.83;14.27;;;0.90;99.90;;;;;;5047368;28;20721;-31
2022/12/12 03:40:50;;;;;;;25.53;15.53;;;0.90;99.90;;;;;;5048432;28;20203;-31
2022/12/12 03:43:30;;;;;;;23.13;14.87;;;0.90;99.90;;;;;;5047766;28;20246;-31
2022/12/12 03:46:20;;;;;;;23.90;13.50;;;0.80;99.90;;;;;;5047635;28;20224;-31
2022/12/12 03:49:05;;;;;;;21.60;14.73;;;0.80;99.90;;;;;;5047919;28;20623;-31
2022/12/12 03:51:38;;;;;;;22.93;15.23;;;0.80;99.90;;;;;;5046998;28;20639;-31
2022/12/12 03:54:17;;;;;;;23.60;14.67;;;0.80;99.90;;;;;;5046909;28;20247;-32
2022/12/12 03:57:11;;;;;;;25.87;15.90;;;0.80;99.90;;;;;;5048002;28;20576;-31
2022/12/12 03:59:52;;;;;;;24.13;15.07;;;0.80;99.90;;;;;;5041169;28;20295;-31
2022/12/12 04:02:30;;;;;;;22.80;14.90;;;0.70;99.90;;;;;;5047375;28;20240;-31
2022/12/12 04:05:13;;;;;;;25.23;14.60;;;0.70;99.90;;;;;;5046798;28;20212;-31
2022/12/12 04:08:00;;;;;;;21.80;14.00;;;0.70;99.90;;;;;;5047357;28;20197;-31
2022/12/12 04:13:42;;;;;;;22.50;14.30;;;0.60;99.90;;;;;;5046818;28;20198;-31
2022/12/12 04:16:15;;;;;;;26.33;14.80;;;0.60;99.90;;;;;;5046900;28;20331;-31
2022/12/12 04:18:55;;;;;;;20.10;13.53;;;0.60;99.90;;;;;;5046329;28;20326;-31
2022/12/12 04:24:35;;;;;;;22.97;14.33;;;0.50;99.90;;;;;;5045883;28;21151;-31
2022/12/12 04:27:31;;;;;;;22.37;14.60;;;0.50;99.90;;;;;;5046341;28;20215;-31
2022/12/12 04:30:03;;;;;;;20.40;14.17;;;0.50;99.90;;;;;;5046263;28;20200;-31
2022/12/12 04:32:38;;;;;;;21.97;14.07;;;0.50;99.90;;;;;;5046568;28;20205;-31
2022/12/12 04:35:21;;;;;;;22.03;13.93;;;0.50;99.90;;;;;;5046264;28;20578;-31
2022/12/12 04:37:57;;;;;;;23.63;14.30;;;0.50;99.90;;;;;;5046631;28;20214;-31
2022/12/12 04:40:30;;;;;;;21.90;14.00;;;0.50;99.90;;;;;;5046234;28;20417;-31
2022/12/12 04:43:15;;;;;;;22.27;14.43;;;0.50;99.90;;;;;;5046670;28;20318;-32
2022/12/12 04:45:49;;;;;;;22.53;14.33;;;0.50;99.90;;;;;;5044638;28;20232;-31
2022/12/12 04:48:28;;;;;;;23.77;15.10;;;0.50;99.90;;;;;;5046701;28;20675;-31
2022/12/12 04:51:00;;;;;;;22.73;14.13;;;0.40;99.90;;;;;;5046475;28;20224;-31
2022/12/12 04:53:34;;;;;;;21.97;14.00;;;0.40;99.90;;;;;;5045729;28;20247;-31
2022/12/12 04:56:08;;;;;;;23.67;14.53;;;0.40;99.90;;;;;;5046565;28;20227;-31
2022/12/12 04:58:42;;;;;;;23.40;14.27;;;0.40;99.90;;;;;;5044869;28;20200;-31
2022/12/12 05:01:22;;;;;;;23.87;13.97;;;0.40;99.90;;;;;;5046210;28;20299;-31
2022/12/12 05:03:58;;;;;;;25.73;15.47;;;0.40;99.90;;;;;;5061225;28;20207;-31
2022/12/12 05:06:36;;;;;;;23.60;14.53;;;0.40;99.90;;;;;;5065972;28;20704;-31
2022/12/12 05:09:04;;;;;;;26.10;14.83;;;0.30;99.90;;;;;;5053685;28;20200;-31
2022/12/12 05:11:33;;;;;;;25.10;14.70;;;0.30;99.90;;;;;;5045826;28;20209;-31
2022/12/12 05:14:00;;;;;;;25.10;14.80;;;0.30;99.90;;;;;;5046155;28;20201;-31
2022/12/12 05:16:33;;;;;;;22.20;14.10;;;0.30;99.90;;;;;;5045690;28;20200;-31
2022/12/12 05:19:00;;;;;;;22.27;13.60;;;0.30;99.90;;;;;;5045493;28;20741;-31
2022/12/12 05:21:30;;;;;;;27.33;14.47;;;0.30;99.90;;;;;;5045553;28;20240;-31
2022/12/12 05:23:59;;;;;;;21.70;13.40;;;0.30;99.90;;;;;;5045133;28;20306;-31
2022/12/12 05:26:31;;;;;;;25.23;15.73;;;0.20;99.90;;;;;;5044036;28;20246;-31
2022/12/12 05:29:03;;;;;;;26.13;14.83;;;0.20;99.90;;;;;;5044977;28;20220;-31
2022/12/12 05:31:40;;;;;;;22.10;14.20;;;0.20;99.90;;;;;;5045641;28;20200;-31
2022/12/12 05:34:09;;;;;;;23.10;14.37;;;0.20;99.90;;;;;;5045420;28;20227;-30
2022/12/12 05:36:36;;;;;;;27.70;15.40;;;0.20;99.90;;;;;;5045753;28;20280;-30
2022/12/12 05:39:05;;;;;;;22.13;14.33;;;0.20;99.90;;;;;;5044731;28;20287;-30
2022/12/12 05:41:34;;;;;;;23.10;13.80;;;0.20;99.90;;;;;;5045316;28;20735;-31
2022/12/12 05:44:01;;;;;;;26.47;15.57;;;0.20;99.90;;;;;;5045045;28;20667;-30
2022/12/12 05:46:28;;;;;;;24.87;14.60;;;0.10;99.90;;;;;;5044958;28;20338;-30
2022/12/12 05:48:56;;;;;;;25.23;14.77;;;0.20;99.90;;;;;;5044729;28;20601;-30
2022/12/12 05:51:25;;;;;;;28.33;14.27;;;0.10;99.90;;;;;;5045017;28;20305;-30
2022/12/12 05:53:52;;;;;;;21.57;14.33;;;0.10;99.90;;;;;;5044381;28;20520;-30
2022/12/12 05:56:19;;;;;;;23.60;14.77;;;0.10;99.90;;;;;;5043786;28;20294;-30
2022/12/12 05:58:46;;;;;;;22.37;13.80;;;0.10;99.90;;;;;;5044520;28;20307;-30
2022/12/12 06:01:14;;;;;;;25.10;15.30;;;0.10;99.90;;;;;;5054945;28;20260;-30
2022/12/12 06:03:43;;;;;;;26.13;14.50;;;0.10;99.90;;;;;;5062844;28;20210;-30
2022/12/12 06:06:15;;;;;;;26.23;15.17;;;0.10;99.90;;;;;;5058680;28;20790;-30
2022/12/12 06:08:48;;;;;;;25.17;15.57;;;0.00;99.90;;;;;;5048428;28;20208;-30
2022/12/12 06:11:15;;;;;;;25.20;15.30;;;0.00;99.90;;;;;;5043860;28;20695;-31
2022/12/12 06:13:42;;;;;;;22.53;13.77;;;0.00;99.90;;;;;;5045505;28;20267;-31
2022/12/12 06:16:13;;;;;;;26.27;14.63;;;0.00;99.90;;;;;;5045864;28;20203;-31
2022/12/12 06:18:41;;;;;;;23.07;14.57;;;0.00;99.90;;;;;;5045958;28;20753;-30
2022/12/12 06:21:11;;;;;;;26.63;15.17;;;0.00;99.90;;;;;;5044919;28;20714;-31
2022/12/12 06:23:41;;;;;;;25.13;15.20;;;0.00;99.90;;;;;;5045056;28;20287;-31
2022/12/12 06:26:13;;;;;;;23.63;14.43;;;0.00;99.90;;;;;;5046603;28;20236;-31
2022/12/12 06:28:41;;;;;;;24.40;15.33;;;0.00;99.90;;;;;;5049497;28;20206;-31
2022/12/12 06:31:09;;;;;;;25.47;14.83;;;0.00;99.90;;;;;;5047226;28;20300;-31
2022/12/12 06:33:43;;;;;;;24.60;14.53;;;0.00;99.90;;;;;;5061100;28;20195;-31
2022/12/12 06:36:28;;;;;;;26.00;14.83;;;-0.10;99.90;;;;;;5064779;28;20203;-30
2022/12/12 06:38:57;;;;;;;22.20;14.13;;;-0.10;99.90;;;;;;5064041;28;20334;-30
2022/12/12 06:41:27;;;;;;;21.97;13.73;;;-0.10;99.90;;;;;;5064974;28;20195;-31
2022/12/12 06:43:54;;;;;;;28.43;15.30;;;-0.10;99.90;;;;;;5059780;28;20618;-31
2022/12/12 06:46:25;;;;;;;23.80;13.87;;;-0.10;99.90;;;;;;5054251;28;20784;-31
2022/12/12 06:48:53;;;;;;;27.90;14.93;;;-0.10;99.90;;;;;;5061510;28;20211;-31
2022/12/12 06:51:26;;;;;;;25.27;15.10;;;-0.10;99.90;;;;;;5059537;28;20232;-31
2022/12/12 06:53:54;;;;;;;24.23;14.63;;;-0.10;99.90;;;;;;5060889;28;20202;-31
2022/12/12 06:56:24;;;;;;;23.77;14.83;;;-0.10;99.90;;;;;;5064546;28;20222;-32
2022/12/12 06:58:53;;;;;;;23.97;14.17;;;-0.10;99.90;;;;;;5054682;28;20196;-32
2022/12/12 07:01:27;;;;;;;23.97;14.60;;;-0.10;99.90;;;;;;5045209;28;20257;-32
2022/12/12 07:03:57;;;;;;;26.50;14.77;;;-0.10;99.90;;;;;;5044793;28;20761;-32
2022/12/12 07:06:26;;;;;;;24.63;14.10;;;-0.10;99.90;;;;;;5045859;28;20300;-32
2022/12/12 07:08:57;;;;;;;23.00;14.40;;;-0.10;99.90;;;;;;5053398;28;20199;-32
2022/12/12 07:11:29;;;;;;;22.90;14.10;;;-0.10;99.90;;;;;;5054439;28;20291;-32
2022/12/12 07:14:02;;;;;;;24.33;14.87;;;-0.10;99.90;;;;;;5049404;28;20761;-32
2022/12/12 07:16:31;;;;;;;24.73;14.30;;;-0.20;99.90;;;;;;5052184;28;20216;-32
2022/12/12 07:18:59;;;;;;;24.70;14.57;;;-0.20;99.90;;;;;;5061259;28;20204;-32
2022/12/12 07:21:26;;;;;;;25.60;14.37;;;-0.20;99.90;;;;;;5064378;28;20307;-32
2022/12/12 07:23:54;;;;;;;23.83;14.53;;;-0.20;99.90;;;;;;5051694;28;20215;-32
2022/12/12 07:26:23;;;;;;;25.27;15.30;;;-0.20;99.90;;;;;;5061989;28;20326;-32
2022/12/12 07:28:52;;;;;;;23.60;14.63;;;-0.20;99.90;;;;;;5058000;28;20211;-32
2022/12/12 07:31:21;;;;;;;25.30;14.40;;;-0.20;99.90;;;;;;5063349;28;20511;-32
2022/12/12 07:33:49;;;;;;;24.37;15.17;;;-0.20;99.90;;;;;;5056618;28;20342;-32
2022/12/12 07:36:20;;;;;;;26.67;15.57;;;-0.20;99.90;;;;;;5073996;28;20207;-32
2022/12/12 07:38:47;;;;;;;25.90;15.13;;;-0.20;99.90;;;;;;5065032;28;20457;-32
2022/12/12 07:41:17;;;;;;;25.27;14.93;;;-0.30;99.90;;;;;;5064199;28;20224;-32
2022/12/12 07:43:45;;;;;;;24.13;13.63;;;-0.30;99.90;;;;;;5065714;28;20235;-32
2022/12/12 07:46:23;;;;;;;25.40;14.50;;;-0.30;99.90;;;;;;5059394;28;20632;-32
2022/12/12 07:48:55;;;;;;;28.40;14.90;;;-0.30;99.90;;;;;;5058116;28;20199;-32
2022/12/12 07:51:23;;;;;;;25.27;14.47;;;-0.30;99.90;;;;;;5069660;28;20229;-32
2022/12/12 07:53:50;;;;;;;26.40;14.67;;;-0.30;99.90;;;;;;5081678;28;20203;-32
2022/12/12 07:56:19;;;;;;;24.00;14.47;;;-0.30;99.90;;;;;;5058336;28;20235;-32
2022/12/12 07:58:46;;;;;;;24.27;13.50;;;-0.30;99.90;;;;;;5066435;28;20210;-32
2022/12/12 08:01:16;;;;;;;25.13;14.23;;;-0.40;99.90;;;;;;5067094;28;20204;-32
2022/12/12 08:03:47;;;;;;;28.10;15.30;;;-0.40;99.90;;;;;;5068548;28;20543;-32
2022/12/12 08:06:18;;;;;;;24.47;14.23;;;-0.40;99.90;;;;;;5057980;28;20319;-32
2022/12/12 08:08:46;;;;;;;26.97;15.40;;;-0.40;99.90;;;;;;5051368;28;20747;-32
2022/12/12 08:11:16;;;;;;;32.47;16.50;;;-0.30;99.90;;;;;;5057563;28;20232;-32
2022/12/12 08:13:43;;;;;;;27.13;14.97;;;-0.30;99.90;;;;;;5044692;28;20252;-32
2022/12/12 08:16:16;;;;;;;28.60;15.37;;;-0.40;99.90;;;;;;5046313;28;20192;-32
2022/12/12 08:18:44;;;;;;;31.93;14.80;;;-0.30;99.90;;;;;;5076411;28;20611;-32
2022/12/12 08:21:15;;;;;;;26.70;14.67;;;-0.30;99.90;;;;;;5085488;28;20247;-32
2022/12/12 08:23:57;;;;;;;28.23;15.37;;;-0.30;99.90;;;;;;5086948;28;20214;-32
2022/12/12 08:26:25;;;;;;;28.80;15.23;;;-0.30;99.90;;;;;;5076037;28;20243;-32
2022/12/12 08:28:55;;;;;;;29.20;15.47;;;-0.30;99.90;;;;;;5046915;28;20220;-31
2022/12/12 08:31:23;;;;;;;27.50;15.20;;;-0.30;99.90;;;;;;5052386;28;20200;-30
2022/12/12 08:33:56;;;;;;;25.73;13.53;;;-0.30;99.90;;;;;;5058350;28;20196;-30
2022/12/12 08:36:31;;;;;;;31.03;16.37;;;-0.30;99.90;;;;;;5079707;28;20211;-30
2022/12/12 08:39:08;;;;;;;28.70;15.37;;;-0.20;99.90;;;;;;5052907;28;20211;-31
2022/12/12 08:41:42;;;;;;;26.73;14.00;;;-0.20;99.90;;;;;;5046454;28;20708;-30
2022/12/12 08:44:10;;;;;;;25.70;14.50;;;-0.20;99.90;;;;;;5065204;28;20200;-30
2022/12/12 08:46:38;;;;;;;27.43;14.03;;;-0.20;99.90;;;;;;5064813;28;20314;-30
2022/12/12 08:49:11;;;;;;;28.87;14.20;;;-0.20;99.90;;;;;;5078601;28;20222;-31
2022/12/12 08:51:39;;;;;;;27.10;14.47;;;-0.20;99.90;;;;;;5062422;28;20780;-31
2022/12/12 08:54:09;;;;;;;26.53;13.93;;;-0.10;99.90;;;;;;5063402;28;20314;-31
2022/12/12 08:56:39;;;;;;;28.17;14.70;;;-0.10;99.90;;;;;;5047233;28;20252;-30
2022/12/12 08:59:06;;;;;;;27.03;15.03;;;-0.10;99.90;;;;;;5077814;28;20274;-30
2022/12/12 09:01:37;;;;;;;29.30;15.03;;;-0.10;99.90;;;;;;5047789;28;20278;-30
2022/12/12 09:04:05;;;;;;;26.10;14.90;;;0.00;99.90;;;;;;5043981;28;20227;-30
2022/12/12 09:06:32;;;;;;;29.60;14.63;;;0.00;99.90;;;;;;5056720;28;20321;-30
2022/12/12 09:09:05;;;;;;;28.17;14.07;;;0.00;99.90;;;;;;5047919;28;20207;-30
2022/12/12 09:11:34;;;;;;;27.47;13.80;;;0.00;99.90;;;;;;5049256;28;20199;-32
2022/12/12 09:14:04;;;;;;;27.03;14.47;;;0.10;99.90;;;;;;5048917;28;20212;-32
2022/12/12 09:16:31;;;;;;;25.23;14.03;;;0.10;99.90;;;;;;5070775;28;20210;-31
2022/12/12 09:19:03;;;;;;;27.90;14.43;;;0.10;99.90;;;;;;5067385;28;20243;-32
2022/12/12 09:21:30;;;;;;;28.77;15.23;;;0.10;99.90;;;;;;5056620;28;20200;-32
2022/12/12 09:24:03;;;;;;;26.60;14.10;;;0.20;99.90;;;;;;5049541;28;20328;-32
2022/12/12 09:26:32;;;;;;;26.30;14.23;;;0.20;99.90;;;;;;5044286;28;20709;-32
2022/12/12 09:29:01;;;;;;;31.27;14.53;;;0.20;99.90;;;;;;5060524;28;20207;-32
2022/12/12 09:31:28;;;;;;;33.20;15.27;;;0.20;99.90;;;;;;5075724;28;20251;-32
2022/12/12 09:33:55;;;;;;;28.40;14.53;;;0.20;99.90;;;;;;5058904;28;20199;-32
2022/12/12 09:36:23;;;;;;;29.07;15.23;;;0.30;99.90;;;;;;5067420;28;20543;-32
2022/12/12 09:38:50;;;;;;;23.83;12.87;;;0.30;99.90;;;;;;5046110;28;20257;-31
2022/12/12 09:41:25;;;;;;;28.03;14.37;;;0.30;99.90;;;;;;5062822;28;20323;-30
2022/12/12 09:44:01;;;;;;;29.53;14.43;;;0.40;99.90;;;;;;5061877;28;20203;-30
2022/12/12 09:46:31;;;;;;;27.90;14.50;;;0.40;99.90;;;;;;5060914;28;20225;-30
2022/12/12 09:49:03;;;;;;;27.27;13.87;;;0.50;99.90;;;;;;5053713;28;20307;-30
2022/12/12 09:51:31;;;;;;;24.83;13.50;;;0.50;99.90;;;;;;5057740;28;20293;-30
2022/12/12 09:54:01;;;;;;;28.10;13.87;;;0.60;99.90;;;;;;5049967;28;20216;-30
2022/12/12 09:56:43;;;;;;;24.93;13.53;;;0.60;99.90;;;;;;5045302;28;20227;-31
2022/12/12 09:59:55;;;;;;;27.33;13.23;;;0.60;99.90;;;;;;5062020;28;20723;-31
2022/12/12 10:02:37;;;;;;;26.00;13.87;;;0.70;99.90;;;;;;5040062;28;20247;-31
2022/12/12 10:05:16;;;;;;;28.70;12.80;;;0.70;99.90;;;;;;5043796;28;20221;-31
2022/12/12 10:08:06;;;;;;;26.07;13.23;;;0.70;99.90;;;;;;5059405;28;20709;-31
2022/12/12 10:10:46;;;;;;;26.10;13.47;;;0.80;99.90;;;;;;5038068;28;20290;-31
2022/12/12 10:13:22;;;;;;;29.30;12.70;;;0.90;99.90;;;;;;5053009;28;20523;-31
2022/12/12 10:15:56;;;;;;;25.90;13.30;;;0.90;99.90;;;;;;5065183;28;20211;-31
2022/12/12 10:18:34;;;;;;;27.13;12.67;;;1.00;99.90;;;;;;5060382;28;20199;-31
2022/12/12 10:21:05;;;;;;;30.47;14.57;;;1.00;99.90;;;;;;5067241;28;20792;-31
2022/12/12 10:23:46;;;;;;;28.73;13.10;;;1.00;99.90;;;;;;5043983;28;20204;-31
2022/12/12 10:26:23;;;;;;;29.33;14.27;;;1.10;99.90;;;;;;5045185;28;20247;-31
2022/12/12 10:29:15;;;;;;;29.40;14.00;;;1.10;99.90;;;;;;5045346;28;20266;-31
2022/12/12 10:32:09;;;;;;;30.97;15.00;;;1.20;99.90;;;;;;5072609;28;20669;-31
2022/12/12 10:34:55;;;;;;;26.00;12.90;;;1.20;99.90;;;;;;5059796;28;20211;-30
2022/12/12 10:37:50;;;;;;;24.27;12.67;;;1.20;99.90;;;;;;5054413;28;20211;-31
2022/12/12 10:40:23;;;;;;;22.23;12.10;;;1.30;99.90;;;;;;5063560;28;20298;-32
2022/12/12 10:43:25;;;;;;;23.47;12.77;;;1.30;99.90;;;;;;5058003;28;20754;-32
2022/12/12 10:46:08;;;;;;;24.87;12.77;;;1.40;99.90;;;;;;5031940;28;20763;-32
2022/12/12 10:48:41;;;;;;;25.97;12.27;;;1.40;99.90;;;;;;5077384;28;20206;-32
2022/12/12 10:51:12;;;;;;;24.73;12.17;;;1.50;99.90;;;;;;5068358;28;20607;-32
2022/12/12 10:53:40;;;;;;;24.90;13.40;;;1.50;99.90;;;;;;5049826;28;20215;-31
2022/12/12 10:56:18;;;;;;;23.80;12.50;;;1.60;99.90;;;;;;5044260;28;20725;-31
2022/12/12 10:58:55;;;;;;;22.43;12.63;;;1.60;99.90;;;;;;5042485;28;20214;-34
2022/12/12 11:01:27;;;;;;;25.10;11.83;;;1.60;99.90;;;;;;5047335;28;20692;-31
2022/12/12 11:04:17;;;;;;;23.00;12.10;;;1.70;99.90;;;;;;5048899;28;20634;-31
2022/12/12 11:06:54;;;;;;;23.93;12.83;;;1.70;99.90;;;;;;5063001;28;20223;-31
2022/12/12 11:09:29;;;;;;;22.37;11.53;;;1.80;99.90;;;;;;5064990;28;20203;-34
2022/12/12 11:12:13;;;;;;;24.63;12.90;;;1.80;99.90;;;;;;5059900;28;20257;-34
2022/12/12 11:14:46;;;;;;;26.20;13.17;;;1.90;99.90;;;;;;5049732;28;20658;-31
2022/12/12 11:17:29;;;;;;;21.17;11.63;;;1.90;99.90;;;;;;5062899;28;20265;-31
2022/12/12 11:20:04;;;;;;;22.07;12.30;;;2.00;99.90;;;;;;5049465;28;20339;-31
2022/12/12 11:22:32;;;;;;;24.43;12.93;;;2.00;99.90;;;;;;5053049;28;22260;-31
2022/12/12 11:25:00;;;;;;;26.23;12.77;;;2.00;99.90;;;;;;5056030;28;20245;-31
2022/12/12 11:27:36;;;;;;;27.87;13.83;;;2.10;99.90;;;;;;5053610;28;20270;-30
2022/12/12 11:30:18;;;;;;;24.63;13.53;;;2.10;99.90;;;;;;5050910;28;20228;-31
2022/12/12 11:32:48;;;;;;;27.60;13.70;;;2.10;99.90;;;;;;5054112;28;20199;-31
2022/12/12 11:35:23;;;;;;;25.23;13.60;;;2.20;99.90;;;;;;5069962;28;20272;-30
2022/12/12 11:38:13;;;;;;;25.27;13.47;;;2.20;99.90;;;;;;5063019;28;20715;-32
2022/12/12 11:41:02;;;;;;;28.47;13.50;;;2.30;99.90;;;;;;5060676;28;21027;-30
2022/12/12 11:43:50;;;;;;;25.43;13.40;;;2.30;99.90;;;;;;5055303;28;20632;-29
2022/12/12 11:46:25;;;;;;;25.80;13.10;;;2.30;99.90;;;;;;5058153;28;20318;-30
2022/12/12 11:49:02;;;;;;;26.60;13.73;;;2.40;99.90;;;;;;5054738;28;20661;-30
2022/12/12 11:51:31;;;;;;;22.07;11.97;;;2.40;99.90;;;;;;5047839;28;20567;-30
2022/12/12 11:53:59;;;;;;;25.57;13.77;;;2.40;99.90;;;;;;5052773;28;20265;-29
2022/12/12 11:56:44;;;;;;;23.50;13.27;;;2.40;99.90;;;;;;5061194;28;20674;-30
2022/12/12 11:59:32;;;;;;;28.37;13.90;;;2.50;99.90;;;;;;5047590;28;20529;-30
2022/12/12 12:02:09;;;;;;;25.33;13.30;;;2.50;99.90;;;;;;5049866;28;20291;-30
2022/12/12 12:05:00;;;;;;;23.03;12.93;;;2.60;99.90;;;;;;5057281;28;20314;-30
2022/12/12 12:07:48;;;;;;;27.23;13.67;;;2.60;99.90;;;;;;5068424;28;20867;-30
2022/12/12 12:10:40;;;;;;;22.87;12.13;;;2.60;99.90;;;;;;5060162;28;20284;-30
2022/12/12 12:13:39;;;;;;;24.20;13.17;;;2.60;99.90;;;;;;5057066;28;20222;-30
2022/12/12 12:16:25;;;;;;;24.27;13.07;;;2.70;99.90;;;;;;5060274;28;20287;-30
2022/12/12 12:18:55;;;;;;;23.90;12.43;;;2.70;99.90;;;;;;5058519;28;20204;-30
2022/12/12 12:21:43;;;;;;;22.23;11.57;;;2.70;99.90;;;;;;5059089;28;20225;-30
2022/12/12 12:24:45;;;;;;;19.73;11.40;;;2.80;99.90;;;;;;5053812;28;20257;-30
2022/12/12 12:27:19;;;;;;;20.23;11.83;;;2.80;99.90;;;;;;5045402;28;20728;-30
2022/12/12 12:30:15;;;;;;;22.73;12.27;;;2.80;99.90;;;;;;5055911;28;20280;-31
2022/12/12 12:32:49;;;;;;;25.00;12.30;;;2.90;99.90;;;;;;5060041;28;20196;-30
2022/12/12 12:35:29;;;;;;;21.60;11.90;;;2.90;99.90;;;;;;5057633;28;20198;-30
2022/12/12 12:38:12;;;;;;;22.93;12.17;;;2.90;99.90;;;;;;5053607;28;20213;-30
2022/12/12 12:41:07;;;;;;;22.63;12.53;;;2.90;99.90;;;;;;5059216;28;20614;-30
2022/12/12 12:43:52;;;;;;;18.93;11.37;;;3.00;99.90;;;;;;5060503;28;20204;-30
2022/12/12 12:46:33;;;;;;;20.20;11.20;;;3.10;99.90;;;;;;5067460;28;20784;-30
2022/12/12 12:49:29;;;;;;;22.27;12.03;;;3.00;99.90;;;;;;5053430;28;20227;-30
2022/12/12 12:52:28;;;;;;;19.37;12.03;;;3.10;99.90;;;;;;5057462;28;20211;-31
2022/12/12 12:54:58;;;;;;;20.07;11.47;;;3.10;99.90;;;;;;5059743;28;20200;-32
2022/12/12 12:57:41;;;;;;;20.33;11.07;;;3.10;99.90;;;;;;5062195;28;20719;-32
2022/12/12 13:00:27;;;;;;;25.30;11.80;;;3.20;99.90;;;;;;5058346;28;20204;-32
2022/12/12 13:03:06;;;;;;;20.23;11.10;;;3.20;99.90;;;;;;5059923;28;20824;-32
2022/12/12 13:05:41;;;;;;;20.00;11.63;;;3.20;99.90;;;;;;5073204;28;20603;-31
2022/12/12 13:08:21;;;;;;;20.27;11.03;;;3.30;99.90;;;;;;5063921;28;20280;-32
2022/12/12 13:11:01;;;;;;;19.70;10.80;;;3.30;99.90;;;;;;5057945;28;20207;-31
2022/12/12 13:13:30;;;;;;;20.57;11.17;;;3.40;99.90;;;;;;5046358;28;20756;-31
2022/12/12 13:16:08;;;;;;;20.07;11.10;;;3.30;99.90;;;;;;5049825;28;20584;-32
2022/12/12 13:18:36;;;;;;;20.83;11.57;;;3.40;99.90;;;;;;5061516;28;20631;-32
2022/12/12 13:21:45;;;;;;;19.03;10.07;;;3.40;99.90;;;;;;5046511;28;20212;-31
2022/12/12 13:24:40;;;;;;;22.17;11.73;;;3.50;99.90;;;;;;5050584;28;20220;-32
2022/12/12 13:27:21;;;;;;;20.40;10.83;;;3.40;99.90;;;;;;5056295;28;20222;-32